Time;durP1;ratioP1;P1;durP2;ratioP2;P2;SDS_P1;SDS_P2;PMS_P1;PMS_P2;Temp;Humidity;BMP_temperature;BMP_pressure;BME280_temperature;BME280_humidity;BME280_pressure;Samples;Min_cycle;Max_cycle;Signal;HPM_P1;HPM_P2
2021/11/21 00:00:17;;;;;;;0.30;0.30;;;4.00;99.90;;;;;;5034093;28;20947;-91
2021/11/21 00:02:43;;;;;;;0.40;0.40;;;4.00;99.90;;;;;;5034346;28;20451;-85
2021/11/21 00:05:12;;;;;;;0.40;0.30;;;4.00;99.90;;;;;;5033113;28;20805;-84
2021/11/21 00:07:40;;;;;;;0.30;0.27;;;4.00;99.90;;;;;;5033431;28;20484;-84
2021/11/21 00:10:08;;;;;;;0.30;0.20;;;3.90;99.90;;;;;;5033013;28;20435;-85
2021/11/21 00:12:34;;;;;;;0.40;0.40;;;3.90;99.90;;;;;;5032828;28;20439;-84
2021/11/21 00:15:01;;;;;;;0.30;0.30;;;3.90;99.90;;;;;;5032937;28;20491;-84
2021/11/21 00:17:28;;;;;;;0.40;0.30;;;3.90;99.90;;;;;;5032875;28;20966;-83
2021/11/21 00:19:55;;;;;;;1.23;0.43;;;3.90;99.90;;;;;;5032766;28;20965;-84
2021/11/21 00:22:24;;;;;;;1.43;1.33;;;3.90;99.90;;;;;;5032797;28;20439;-84
2021/11/21 00:24:52;;;;;;;2.40;1.20;;;4.00;99.90;;;;;;5032981;28;20511;-81
2021/11/21 00:27:21;;;;;;;0.30;0.30;;;3.90;99.90;;;;;;5035719;28;20450;-80
2021/11/21 00:29:47;;;;;;;0.40;0.40;;;4.00;99.90;;;;;;5036891;28;20439;-80
2021/11/21 00:32:14;;;;;;;0.30;0.30;;;4.00;99.90;;;;;;5036560;28;20435;-81
2021/11/21 00:34:42;;;;;;;0.30;0.20;;;4.00;99.90;;;;;;5036342;28;20494;-80
2021/11/21 00:37:08;;;;;;;1.23;0.43;;;3.90;99.90;;;;;;5036818;28;20454;-81
2021/11/21 00:39:35;;;;;;;0.30;0.30;;;4.00;99.90;;;;;;5036759;28;20508;-80
2021/11/21 00:42:03;;;;;;;0.30;0.30;;;4.00;99.90;;;;;;5036400;28;20446;-80
2021/11/21 00:44:30;;;;;;;0.47;0.30;;;4.00;99.90;;;;;;5036488;28;20466;-81
2021/11/21 00:46:57;;;;;;;0.30;0.30;;;4.00;99.90;;;;;;5036765;28;20450;-80
2021/11/21 00:49:24;;;;;;;1.23;1.23;;;4.00;99.90;;;;;;5037275;28;20458;-90
2021/11/21 00:51:51;;;;;;;0.30;0.20;;;4.00;99.90;;;;;;5037908;28;20450;-91
2021/11/21 00:54:25;;;;;;;0.30;0.30;;;4.00;99.90;;;;;;5037857;28;20491;-91
2021/11/21 00:56:52;;;;;;;0.30;0.20;;;3.90;99.90;;;;;;5037417;28;20492;-91
2021/11/21 00:59:21;;;;;;;0.30;0.20;;;3.90;99.90;;;;;;5037025;28;20492;-84
2021/11/21 01:01:48;;;;;;;0.40;0.30;;;4.00;99.90;;;;;;5036320;28;20510;-83
2021/11/21 01:04:15;;;;;;;0.30;0.20;;;3.90;99.90;;;;;;5036205;28;20520;-83
2021/11/21 01:06:43;;;;;;;0.30;0.30;;;3.80;99.90;;;;;;5036024;28;20462;-80
2021/11/21 01:09:10;;;;;;;0.30;0.30;;;3.80;99.90;;;;;;5035932;28;20455;-80
2021/11/21 01:11:37;;;;;;;0.30;0.30;;;3.80;99.90;;;;;;5036052;28;20458;-80
2021/11/21 01:14:04;;;;;;;0.93;0.50;;;3.80;99.90;;;;;;5035675;28;20482;-81
2021/11/21 01:16:33;;;;;;;0.40;0.40;;;3.70;99.90;;;;;;5035970;28;20450;-81
2021/11/21 01:18:59;;;;;;;0.80;0.60;;;3.80;99.90;;;;;;5035959;28;20435;-81
2021/11/21 01:21:28;;;;;;;0.30;0.20;;;3.80;99.90;;;;;;5036246;28;20458;-86
2021/11/21 01:23:56;;;;;;;0.30;0.30;;;3.70;99.90;;;;;;5035814;28;20836;-86
2021/11/21 01:26:22;;;;;;;0.30;0.20;;;3.70;99.90;;;;;;5035833;28;20454;-85
2021/11/21 01:28:49;;;;;;;0.30;0.30;;;3.70;99.90;;;;;;5035833;28;20451;-86
2021/11/21 01:31:16;;;;;;;0.40;0.40;;;3.70;99.90;;;;;;5035782;28;20458;-85
2021/11/21 01:33:44;;;;;;;0.30;0.20;;;3.70;99.90;;;;;;5035503;28;20473;-85
2021/11/21 01:36:11;;;;;;;0.30;0.30;;;3.70;99.90;;;;;;5035825;28;20454;-85
2021/11/21 01:38:40;;;;;;;0.30;0.30;;;3.70;99.90;;;;;;5034476;28;20431;-86
2021/11/21 01:41:07;;;;;;;0.30;0.30;;;3.70;99.90;;;;;;5035270;28;20470;-80
2021/11/21 01:43:34;;;;;;;0.50;0.50;;;3.70;99.90;;;;;;5035148;28;20431;-81
2021/11/21 01:46:01;;;;;;;0.40;0.40;;;3.60;99.90;;;;;;5035559;28;20497;-86
2021/11/21 01:48:28;;;;;;;0.30;0.30;;;3.60;99.90;;;;;;5035516;28;20796;-85
2021/11/21 01:51:01;;;;;;;0.30;0.30;;;3.70;99.90;;;;;;5035130;28;20951;-85
2021/11/21 01:53:27;;;;;;;0.30;0.20;;;3.60;99.90;;;;;;5034991;28;20404;-85
2021/11/21 01:55:54;;;;;;;0.30;0.20;;;3.60;99.90;;;;;;5034986;28;20435;-86
2021/11/21 01:58:21;;;;;;;0.30;0.30;;;3.60;99.90;;;;;;5034966;28;20475;-84
2021/11/21 02:00:49;;;;;;;0.50;0.30;;;3.60;99.90;;;;;;5034913;28;20442;-83
2021/11/21 02:03:17;;;;;;;0.40;0.40;;;3.60;99.90;;;;;;5035128;28;20458;-83
2021/11/21 02:05:44;;;;;;;0.30;0.20;;;3.60;99.90;;;;;;5035048;28;20471;-84
2021/11/21 02:08:13;;;;;;;0.40;0.40;;;3.60;99.90;;;;;;5035037;28;20454;-84
2021/11/21 02:10:40;;;;;;;0.30;0.20;;;3.60;99.90;;;;;;5035046;28;20981;-84
2021/11/21 02:13:09;;;;;;;0.43;0.43;;;3.70;99.90;;;;;;5034943;28;20461;-81
2021/11/21 02:15:38;;;;;;;0.30;0.30;;;3.70;99.90;;;;;;5034490;28;21008;-80
2021/11/21 02:18:05;;;;;;;0.30;0.30;;;3.60;99.90;;;;;;5034627;28;20446;-80
2021/11/21 02:20:47;;;;;;;0.30;0.30;;;3.60;99.90;;;;;;5034622;28;20460;-80
2021/11/21 02:23:15;;;;;;;0.30;0.30;;;3.60;99.90;;;;;;5034427;28;20942;-80
2021/11/21 02:25:42;;;;;;;0.30;0.30;;;3.50;99.90;;;;;;5034647;28;20467;-80
2021/11/21 02:28:09;;;;;;;0.40;0.40;;;3.50;99.90;;;;;;5034314;28;20930;-80
2021/11/21 02:30:38;;;;;;;0.30;0.30;;;3.50;99.90;;;;;;5034552;28;20451;-80
2021/11/21 02:33:09;;;;;;;0.30;0.20;;;3.50;99.90;;;;;;5034569;28;20439;-80
2021/11/21 02:35:39;;;;;;;0.60;0.50;;;3.50;99.90;;;;;;5034371;28;20483;-81
2021/11/21 02:38:08;;;;;;;0.30;0.30;;;3.40;99.90;;;;;;5034397;28;20447;-80
2021/11/21 02:40:35;;;;;;;0.30;0.30;;;3.40;99.90;;;;;;5034419;28;20447;-80
2021/11/21 02:43:03;;;;;;;0.97;0.97;;;3.50;99.90;;;;;;5034343;28;20458;-80
2021/11/21 02:45:30;;;;;;;0.30;0.30;;;3.40;99.90;;;;;;5034195;28;20838;-80
2021/11/21 02:47:57;;;;;;;0.30;0.20;;;3.50;99.90;;;;;;5034472;28;20450;-80
2021/11/21 02:50:25;;;;;;;0.30;0.30;;;3.40;99.90;;;;;;5034181;28;20442;-80
2021/11/21 02:52:53;;;;;;;0.30;0.30;;;3.50;99.90;;;;;;5034243;28;20450;-80
2021/11/21 02:55:27;;;;;;;0.30;0.20;;;3.40;99.90;;;;;;5034082;28;20490;-80
2021/11/21 02:57:53;;;;;;;0.30;0.20;;;3.40;99.90;;;;;;5033885;28;20478;-81
2021/11/21 03:00:20;;;;;;;0.30;0.20;;;3.30;99.90;;;;;;5033712;28;20946;-81
2021/11/21 03:02:49;;;;;;;0.40;0.40;;;3.30;99.90;;;;;;5033909;28;20443;-80
2021/11/21 03:05:17;;;;;;;0.50;0.50;;;3.20;99.90;;;;;;5033845;28;20459;-81
2021/11/21 03:07:45;;;;;;;0.30;0.30;;;3.10;99.90;;;;;;5034108;28;20477;-80
2021/11/21 03:10:14;;;;;;;0.30;0.20;;;3.10;99.90;;;;;;5033623;28;20946;-81
2021/11/21 03:12:43;;;;;;;0.30;0.30;;;3.10;99.90;;;;;;5033805;28;20450;-81
2021/11/21 03:15:10;;;;;;;0.30;0.30;;;3.10;99.90;;;;;;5033339;28;20482;-80
2021/11/21 03:17:38;;;;;;;0.30;0.30;;;3.10;99.90;;;;;;5033704;28;20927;-81
2021/11/21 03:20:07;;;;;;;0.40;0.40;;;3.10;99.90;;;;;;5033400;28;20449;-80
2021/11/21 03:22:33;;;;;;;0.50;0.40;;;3.00;99.90;;;;;;5033395;28;20439;-80
2021/11/21 03:25:00;;;;;;;1.33;0.70;;;3.00;99.90;;;;;;5033331;28;20455;-81
2021/11/21 03:27:27;;;;;;;0.30;0.30;;;2.90;99.90;;;;;;5033336;28;20439;-81
2021/11/21 03:29:56;;;;;;;0.30;0.20;;;3.00;99.90;;;;;;5033357;28;20801;-80
2021/11/21 03:32:23;;;;;;;0.30;0.20;;;3.00;99.90;;;;;;5033279;28;20439;-80
2021/11/21 03:34:50;;;;;;;2.20;0.80;;;3.00;99.90;;;;;;5033341;28;20486;-81
2021/11/21 03:37:17;;;;;;;0.30;0.20;;;3.00;99.90;;;;;;5033432;28;20534;-81
2021/11/21 03:39:44;;;;;;;0.30;0.30;;;3.00;99.90;;;;;;5033209;28;20431;-81
2021/11/21 03:42:11;;;;;;;0.40;0.30;;;3.00;99.90;;;;;;5033157;28;20438;-81
2021/11/21 03:44:37;;;;;;;0.30;0.20;;;3.00;99.90;;;;;;5033023;28;20463;-81
2021/11/21 03:47:06;;;;;;;0.30;0.20;;;3.00;99.90;;;;;;5033324;28;20450;-81
2021/11/21 03:49:33;;;;;;;0.30;0.30;;;3.00;99.90;;;;;;5033116;28;20431;-80
2021/11/21 03:51:59;;;;;;;0.30;0.30;;;3.00;99.90;;;;;;5033066;28;20446;-81
2021/11/21 03:54:26;;;;;;;0.30;0.20;;;3.00;99.90;;;;;;5032835;28;20856;-81
2021/11/21 03:56:53;;;;;;;0.47;0.47;;;3.00;99.90;;;;;;5033165;28;20472;-81
2021/11/21 03:59:20;;;;;;;0.30;0.30;;;3.00;99.90;;;;;;5032871;28;20482;-81
2021/11/21 04:01:47;;;;;;;0.40;0.33;;;2.90;99.90;;;;;;5034982;28;20439;-81
2021/11/21 04:04:15;;;;;;;0.30;0.27;;;2.90;99.90;;;;;;5036944;28;20470;-81
2021/11/21 04:06:42;;;;;;;0.40;0.40;;;2.90;99.90;;;;;;5037325;28;20449;-81
2021/11/21 04:09:09;;;;;;;0.30;0.30;;;2.90;99.90;;;;;;5039095;28;20453;-80
2021/11/21 04:11:36;;;;;;;0.30;0.20;;;2.90;99.90;;;;;;5037522;28;20462;-81
2021/11/21 04:14:03;;;;;;;0.50;0.40;;;2.90;99.90;;;;;;5037342;28;20470;-81
2021/11/21 04:16:29;;;;;;;0.30;0.30;;;2.80;99.90;;;;;;5037055;28;20486;-81
2021/11/21 04:18:56;;;;;;;0.30;0.20;;;2.80;99.90;;;;;;5037014;28;20505;-80
2021/11/21 04:21:24;;;;;;;0.30;0.30;;;2.80;99.90;;;;;;5036796;28;20430;-80
2021/11/21 04:23:51;;;;;;;0.30;0.30;;;2.80;99.90;;;;;;5036604;28;20470;-81
2021/11/21 04:26:18;;;;;;;0.30;0.30;;;2.70;99.90;;;;;;5036608;28;20449;-80
2021/11/21 04:28:45;;;;;;;0.30;0.30;;;2.70;99.90;;;;;;5036885;28;20457;-81
2021/11/21 04:31:12;;;;;;;0.30;0.30;;;2.70;99.90;;;;;;5036863;28;20430;-80
2021/11/21 04:33:38;;;;;;;0.30;0.20;;;2.80;99.90;;;;;;5036730;28;20442;-80
2021/11/21 04:36:05;;;;;;;0.30;0.20;;;2.80;99.90;;;;;;5036936;28;20478;-80
2021/11/21 04:38:34;;;;;;;0.30;0.20;;;2.80;99.90;;;;;;5036717;28;20788;-80
2021/11/21 04:41:01;;;;;;;0.30;0.30;;;2.80;99.90;;;;;;5036642;28;20458;-81
2021/11/21 04:43:28;;;;;;;0.30;0.30;;;2.80;99.90;;;;;;5036548;28;20787;-80
2021/11/21 04:45:56;;;;;;;0.30;0.20;;;2.70;99.90;;;;;;5036571;28;20455;-80
2021/11/21 04:48:24;;;;;;;0.67;0.40;;;2.80;99.90;;;;;;5036556;28;20455;-80
2021/11/21 04:50:52;;;;;;;0.30;0.20;;;2.80;99.90;;;;;;5036230;28;20803;-81
2021/11/21 04:53:19;;;;;;;0.30;0.30;;;2.70;99.90;;;;;;5036411;28;20453;-80
2021/11/21 04:55:47;;;;;;;0.30;0.20;;;2.70;99.90;;;;;;5036507;28;20505;-80
2021/11/21 04:58:15;;;;;;;0.30;0.20;;;2.70;99.90;;;;;;5036094;28;20490;-81
2021/11/21 05:00:42;;;;;;;0.47;0.47;;;2.70;99.90;;;;;;5036356;28;20446;-80
2021/11/21 05:03:09;;;;;;;0.30;0.30;;;2.70;99.90;;;;;;5036240;28;20484;-81
2021/11/21 05:05:36;;;;;;;0.30;0.30;;;2.60;99.90;;;;;;5035875;28;20466;-81
2021/11/21 05:08:04;;;;;;;0.30;0.20;;;2.60;99.90;;;;;;5036196;28;20477;-81
2021/11/21 05:10:31;;;;;;;0.43;0.43;;;2.50;99.90;;;;;;5036087;28;20439;-81
2021/11/21 05:12:59;;;;;;;0.30;0.30;;;2.50;99.90;;;;;;5034480;28;20443;-81
2021/11/21 05:15:27;;;;;;;0.30;0.20;;;2.40;99.90;;;;;;5035755;28;20536;-80
2021/11/21 05:17:54;;;;;;;0.30;0.20;;;2.40;99.90;;;;;;5035809;28;20927;-81
2021/11/21 05:20:21;;;;;;;0.30;0.30;;;2.40;99.90;;;;;;5035639;28;20947;-81
2021/11/21 05:22:49;;;;;;;0.40;0.40;;;2.30;99.90;;;;;;5036146;28;20846;-81
2021/11/21 05:25:16;;;;;;;0.30;0.30;;;2.30;99.90;;;;;;5035544;28;20459;-81
2021/11/21 05:27:47;;;;;;;0.30;0.30;;;2.30;99.90;;;;;;5035528;28;20454;-81
2021/11/21 05:30:16;;;;;;;0.30;0.30;;;2.30;99.90;;;;;;5035505;28;20439;-81
2021/11/21 05:32:43;;;;;;;0.30;0.30;;;2.30;99.90;;;;;;5035697;28;20442;-81
2021/11/21 05:35:10;;;;;;;0.40;0.40;;;2.20;99.90;;;;;;5035473;28;20486;-81
2021/11/21 05:37:37;;;;;;;0.30;0.30;;;2.20;99.90;;;;;;5035751;28;20447;-81
2021/11/21 05:40:06;;;;;;;0.30;0.30;;;2.20;99.90;;;;;;5035626;28;20806;-81
2021/11/21 05:42:34;;;;;;;0.30;0.30;;;2.20;99.90;;;;;;5035487;28;20461;-81
2021/11/21 05:45:00;;;;;;;0.30;0.20;;;2.20;99.90;;;;;;5035270;28;20459;-81
2021/11/21 05:47:28;;;;;;;0.30;0.20;;;2.20;99.90;;;;;;5035723;28;20442;-81
2021/11/21 05:49:55;;;;;;;0.30;0.30;;;2.20;99.90;;;;;;5035179;28;20938;-81
2021/11/21 05:52:22;;;;;;;0.30;0.30;;;2.30;99.90;;;;;;5035317;28;20454;-81
2021/11/21 05:54:50;;;;;;;0.40;0.40;;;2.20;99.90;;;;;;5035001;28;20459;-81
2021/11/21 05:57:17;;;;;;;0.30;0.20;;;2.20;99.90;;;;;;5034988;28;20459;-80
2021/11/21 05:59:44;;;;;;;0.30;0.30;;;2.20;99.90;;;;;;5034813;28;20485;-81
2021/11/21 06:02:11;;;;;;;0.30;0.20;;;2.20;99.90;;;;;;5035166;28;20439;-81
2021/11/21 06:04:39;;;;;;;0.30;0.30;;;2.10;99.90;;;;;;5035084;28;20462;-81
2021/11/21 06:07:08;;;;;;;0.30;0.30;;;2.00;99.90;;;;;;5034773;28;20965;-81
2021/11/21 06:09:35;;;;;;;0.30;0.20;;;2.00;99.90;;;;;;5034964;28;20440;-81
2021/11/21 06:12:02;;;;;;;0.30;0.27;;;1.90;99.90;;;;;;5034990;28;20447;-81
2021/11/21 06:14:30;;;;;;;0.30;0.20;;;1.90;99.90;;;;;;5035783;28;20473;-81
2021/11/21 06:16:57;;;;;;;0.30;0.30;;;1.90;99.90;;;;;;5035247;28;20488;-81
2021/11/21 06:19:23;;;;;;;0.30;0.30;;;2.00;99.90;;;;;;5035187;28;20435;-81
2021/11/21 06:21:52;;;;;;;0.30;0.20;;;2.00;99.90;;;;;;5034555;28;20442;-80
2021/11/21 06:24:18;;;;;;;0.30;0.23;;;2.00;99.90;;;;;;5034025;28;20962;-80
2021/11/21 06:26:45;;;;;;;0.30;0.20;;;1.90;99.90;;;;;;5034695;28;20457;-80
2021/11/21 06:29:12;;;;;;;0.30;0.30;;;1.90;99.90;;;;;;5034410;28;20439;-80
2021/11/21 06:31:38;;;;;;;0.30;0.30;;;1.90;99.90;;;;;;5034612;28;20439;-81
2021/11/21 06:34:05;;;;;;;0.30;0.20;;;2.00;99.90;;;;;;5034470;28;20835;-80
2021/11/21 06:36:32;;;;;;;0.30;0.30;;;2.00;99.90;;;;;;5034151;28;20485;-80
2021/11/21 06:39:00;;;;;;;0.30;0.30;;;2.00;99.90;;;;;;5034477;28;20459;-81
2021/11/21 06:41:27;;;;;;;0.30;0.20;;;2.10;99.90;;;;;;5034455;28;20957;-81
2021/11/21 06:43:54;;;;;;;0.30;0.30;;;2.10;99.90;;;;;;5034377;28;20486;-81
2021/11/21 06:46:21;;;;;;;0.30;0.30;;;2.10;99.90;;;;;;5034073;28;20848;-80
2021/11/21 06:48:49;;;;;;;0.30;0.30;;;2.10;99.90;;;;;;5034331;28;20435;-80
2021/11/21 06:51:15;;;;;;;1.17;0.40;;;2.10;99.90;;;;;;5034163;28;20454;-80
2021/11/21 06:53:46;;;;;;;0.30;0.20;;;2.10;99.90;;;;;;5034177;28;20534;-85
2021/11/21 06:56:14;;;;;;;0.30;0.30;;;2.20;99.90;;;;;;5034399;28;20570;-86
2021/11/21 06:58:41;;;;;;;0.30;0.30;;;2.20;99.90;;;;;;5034018;28;20470;-86
2021/11/21 07:01:08;;;;;;;0.30;0.20;;;2.30;99.90;;;;;;5034252;28;20451;-86
2021/11/21 07:03:35;;;;;;;0.30;0.20;;;2.30;99.90;;;;;;5034214;28;20458;-86
2021/11/21 07:06:01;;;;;;;0.30;0.20;;;2.30;99.90;;;;;;5033866;28;20443;-86
2021/11/21 07:08:28;;;;;;;0.30;0.20;;;2.30;99.90;;;;;;5034020;28;20455;-81
2021/11/21 07:10:55;;;;;;;0.37;0.37;;;2.40;99.90;;;;;;5033548;28;20939;-80
2021/11/21 07:13:23;;;;;;;0.30;0.20;;;2.40;99.90;;;;;;5033573;28;20915;-80
2021/11/21 07:15:51;;;;;;;0.30;0.30;;;2.40;99.90;;;;;;5033571;28;20501;-81
2021/11/21 07:18:18;;;;;;;0.30;0.20;;;2.50;99.90;;;;;;5034000;28;20839;-81
2021/11/21 07:20:44;;;;;;;0.30;0.30;;;2.50;99.90;;;;;;5033422;28;20434;-81
2021/11/21 07:23:13;;;;;;;0.30;0.30;;;2.60;99.90;;;;;;5033591;28;20458;-81
2021/11/21 07:25:40;;;;;;;0.30;0.20;;;2.60;99.90;;;;;;5034601;28;20478;-90
2021/11/21 07:28:07;;;;;;;0.30;0.20;;;2.60;99.90;;;;;;5034887;28;20454;-90
2021/11/21 07:30:35;;;;;;;0.30;0.20;;;2.70;99.90;;;;;;5034354;28;20439;-85
2021/11/21 07:33:02;;;;;;;0.30;0.20;;;2.70;99.90;;;;;;5033810;28;20838;-83
2021/11/21 07:35:28;;;;;;;0.30;0.30;;;2.80;99.90;;;;;;5032496;28;20466;-84
2021/11/21 07:37:55;;;;;;;0.40;0.40;;;2.80;99.90;;;;;;5033559;28;20455;-84
2021/11/21 07:40:22;;;;;;;0.30;0.30;;;2.80;99.90;;;;;;5033408;28;20444;-84
2021/11/21 07:42:49;;;;;;;0.40;0.40;;;2.80;99.90;;;;;;5033127;28;20431;-83
2021/11/21 07:45:16;;;;;;;0.30;0.30;;;2.80;99.90;;;;;;5033345;28;20459;-83
2021/11/21 07:47:45;;;;;;;0.40;0.30;;;2.90;99.90;;;;;;5034082;28;20459;-84
2021/11/21 07:50:14;;;;;;;0.30;0.30;;;2.90;99.90;;;;;;5033285;28;20435;-84
2021/11/21 07:52:40;;;;;;;0.30;0.30;;;2.90;99.90;;;;;;5033343;28;20525;-86
2021/11/21 07:55:08;;;;;;;0.30;0.23;;;3.00;99.90;;;;;;5033065;28;20466;-86
2021/11/21 07:57:35;;;;;;;0.40;0.40;;;3.10;99.90;;;;;;5033393;28;21000;-86
2021/11/21 08:00:04;;;;;;;0.50;0.50;;;3.10;99.90;;;;;;5033283;28;20986;-86
2021/11/21 08:02:31;;;;;;;0.57;0.57;;;3.10;99.90;;;;;;5033111;28;20435;-86
2021/11/21 08:04:59;;;;;;;0.30;0.30;;;3.20;99.90;;;;;;5033037;28;20838;-86
2021/11/21 08:07:26;;;;;;;0.30;0.20;;;3.20;99.90;;;;;;5033006;28;20446;-86
2021/11/21 08:09:52;;;;;;;0.30;0.30;;;3.20;99.90;;;;;;5033179;28;20434;-86
2021/11/21 08:12:19;;;;;;;0.30;0.30;;;3.20;99.90;;;;;;5033021;28;20439;-86
2021/11/21 08:14:46;;;;;;;0.30;0.20;;;3.20;99.90;;;;;;5033383;28;20466;-86
2021/11/21 08:17:13;;;;;;;0.30;0.30;;;3.20;99.90;;;;;;5033671;28;20470;-87
2021/11/21 08:19:40;;;;;;;0.30;0.30;;;3.20;99.90;;;;;;5033585;28;20446;-86
2021/11/21 08:22:08;;;;;;;0.40;0.40;;;3.20;99.90;;;;;;5033512;28;20466;-86
2021/11/21 08:24:35;;;;;;;0.30;0.20;;;3.20;99.90;;;;;;5032690;28;20475;-84
2021/11/21 08:27:01;;;;;;;0.40;0.40;;;3.20;99.90;;;;;;5032960;28;20451;-84
2021/11/21 08:29:28;;;;;;;0.30;0.20;;;3.30;99.90;;;;;;5033413;28;20454;-90
2021/11/21 08:31:56;;;;;;;0.30;0.30;;;3.30;99.90;;;;;;5034822;28;20453;-90
2021/11/21 08:34:23;;;;;;;0.50;0.50;;;3.30;99.90;;;;;;5034060;28;20475;-91
2021/11/21 08:36:50;;;;;;;0.30;0.30;;;3.30;99.90;;;;;;5033211;28;20479;-81
2021/11/21 08:39:21;;;;;;;0.30;0.23;;;3.30;99.90;;;;;;5032796;28;20478;-81
2021/11/21 08:41:47;;;;;;;0.30;0.30;;;3.40;99.90;;;;;;5033011;28;20447;-81
2021/11/21 08:44:14;;;;;;;0.40;0.40;;;3.40;99.90;;;;;;5032880;28;20790;-81
2021/11/21 08:46:41;;;;;;;0.30;0.30;;;3.40;99.90;;;;;;5033226;28;20469;-81
2021/11/21 08:49:08;;;;;;;0.30;0.30;;;3.40;99.90;;;;;;5036236;28;20969;-81
2021/11/21 08:51:35;;;;;;;0.40;0.40;;;3.40;99.90;;;;;;5036442;28;20454;-84
2021/11/21 08:54:02;;;;;;;0.43;0.30;;;3.50;99.90;;;;;;5036372;28;20463;-84
2021/11/21 08:56:30;;;;;;;0.63;0.60;;;3.50;99.90;;;;;;5036056;28;20478;-81
2021/11/21 08:58:57;;;;;;;0.30;0.20;;;3.50;99.90;;;;;;5036334;28;20550;-83
2021/11/21 09:01:23;;;;;;;0.40;0.30;;;3.60;99.90;;;;;;5035997;28;20965;-84
2021/11/21 09:03:50;;;;;;;0.70;0.70;;;3.60;99.90;;;;;;5035896;28;20467;-84
2021/11/21 09:06:17;;;;;;;0.30;0.20;;;3.60;99.90;;;;;;5036521;28;20458;-84
2021/11/21 09:08:44;;;;;;;0.30;0.30;;;3.70;99.90;;;;;;5036292;28;20457;-86
2021/11/21 09:11:11;;;;;;;0.40;0.40;;;3.70;99.90;;;;;;5036478;28;20485;-86
2021/11/21 09:13:40;;;;;;;0.33;0.33;;;3.70;99.90;;;;;;5036100;28;20450;-86
2021/11/21 09:16:08;;;;;;;0.30;0.30;;;3.80;99.90;;;;;;5036150;28;20577;-86
2021/11/21 09:18:35;;;;;;;0.37;0.37;;;3.70;99.90;;;;;;5035918;28;20474;-84
2021/11/21 09:21:02;;;;;;;0.30;0.20;;;3.80;99.90;;;;;;5036190;28;20447;-85
2021/11/21 09:23:29;;;;;;;0.30;0.20;;;3.80;99.90;;;;;;5036034;28;20455;-87
2021/11/21 09:25:56;;;;;;;0.30;0.27;;;3.90;99.90;;;;;;5036842;28;20439;-88
2021/11/21 09:28:25;;;;;;;0.40;0.30;;;3.90;99.90;;;;;;5036612;28;20447;-87
2021/11/21 09:30:55;;;;;;;0.70;0.67;;;3.90;99.90;;;;;;5036574;28;20450;-87
2021/11/21 09:33:22;;;;;;;0.40;0.40;;;3.90;99.90;;;;;;5036930;28;20435;-88
2021/11/21 09:35:49;;;;;;;2.33;0.60;;;3.90;99.90;;;;;;5036372;28;20459;-87
2021/11/21 09:38:16;;;;;;;0.40;0.40;;;3.90;99.90;;;;;;5036455;28;20491;-87
2021/11/21 09:40:43;;;;;;;0.30;0.20;;;3.90;99.90;;;;;;5036357;28;20454;-87
2021/11/21 09:43:10;;;;;;;0.97;0.63;;;4.00;99.90;;;;;;5036205;28;20961;-88
2021/11/21 09:45:37;;;;;;;0.43;0.43;;;4.00;99.90;;;;;;5035994;28;20471;-88
2021/11/21 09:48:08;;;;;;;1.07;0.40;;;4.00;99.90;;;;;;5035698;28;20443;-87
2021/11/21 09:50:38;;;;;;;0.30;0.30;;;4.10;99.90;;;;;;5042656;28;20442;-87
2021/11/21 09:53:05;;;;;;;0.30;0.30;;;4.10;99.90;;;;;;5049483;28;20431;-86
2021/11/21 09:55:32;;;;;;;0.50;0.50;;;4.10;99.90;;;;;;5048972;28;20474;-86
2021/11/21 09:57:59;;;;;;;2.20;0.50;;;4.10;99.90;;;;;;5037057;28;20506;-86
2021/11/21 10:00:27;;;;;;;0.30;0.20;;;4.00;99.90;;;;;;5034920;28;20446;-88
2021/11/21 10:03:01;;;;;;;0.40;0.40;;;4.10;99.90;;;;;;5035119;28;20455;-86
2021/11/21 10:05:32;;;;;;;0.50;0.50;;;4.20;99.90;;;;;;5035864;28;20465;-88
2021/11/21 10:08:07;;;;;;;0.30;0.20;;;4.20;99.90;;;;;;5035820;28;20434;-88
2021/11/21 10:10:40;;;;;;;0.30;0.30;;;4.10;99.90;;;;;;5035409;28;20773;-85
2021/11/21 10:13:22;;;;;;;0.50;0.50;;;4.10;99.90;;;;;;5034679;28;20431;-87
2021/11/21 10:15:49;;;;;;;0.50;0.50;;;4.10;99.90;;;;;;5035375;28;20454;-87
2021/11/21 10:18:16;;;;;;;0.30;0.20;;;4.20;99.90;;;;;;5035759;28;20478;-88
2021/11/21 10:20:44;;;;;;;0.60;0.60;;;4.20;99.90;;;;;;5035467;28;20447;-88
2021/11/21 10:23:11;;;;;;;1.17;0.43;;;4.30;99.90;;;;;;5035166;28;20442;-88
2021/11/21 10:25:53;;;;;;;0.57;0.57;;;4.40;99.90;;;;;;5039609;28;20451;-88
2021/11/21 10:28:25;;;;;;;0.50;0.50;;;4.40;99.90;;;;;;5036091;28;20530;-88
2021/11/21 10:31:01;;;;;;;1.13;0.50;;;4.40;99.90;;;;;;5036175;28;20430;-88
2021/11/21 10:33:31;;;;;;;0.30;0.30;;;4.40;99.90;;;;;;5035267;28;20414;-87
2021/11/21 10:36:01;;;;;;;0.57;0.57;;;4.40;99.90;;;;;;5035342;28;20435;-87
2021/11/21 10:38:33;;;;;;;0.30;0.30;;;4.50;99.90;;;;;;5034384;28;20475;-86
2021/11/21 10:41:00;;;;;;;0.30;0.30;;;4.50;99.90;;;;;;5034939;28;20439;-86
2021/11/21 10:43:27;;;;;;;0.93;0.93;;;4.50;99.90;;;;;;5034827;28;20431;-88
2021/11/21 10:45:54;;;;;;;0.30;0.30;;;4.40;99.90;;;;;;5035123;28;20439;-88
2021/11/21 10:48:26;;;;;;;0.40;0.40;;;4.50;99.90;;;;;;5035287;28;20438;-88
2021/11/21 10:50:53;;;;;;;0.30;0.30;;;4.50;99.90;;;;;;5035033;28;20443;-87
2021/11/21 10:53:22;;;;;;;0.40;0.40;;;4.40;99.90;;;;;;5034740;28;20820;-86
2021/11/21 10:56:10;;;;;;;0.30;0.20;;;4.40;99.90;;;;;;5034263;28;20451;-86
2021/11/21 10:58:49;;;;;;;0.80;0.47;;;4.40;99.90;;;;;;5034082;28;20536;-86
2021/11/21 11:01:21;;;;;;;0.30;0.20;;;4.40;99.90;;;;;;5034237;28;21006;-86
2021/11/21 11:04:10;;;;;;;0.30;0.20;;;4.50;99.90;;;;;;5034101;28;20447;-81
2021/11/21 11:06:37;;;;;;;0.30;0.30;;;4.50;99.90;;;;;;5034055;28;20875;-81
2021/11/21 11:09:21;;;;;;;0.40;0.37;;;4.50;99.90;;;;;;5033973;28;20433;-83
2021/11/21 11:11:48;;;;;;;0.30;0.20;;;4.50;99.90;;;;;;5034789;28;20441;-88
2021/11/21 11:14:19;;;;;;;0.30;0.30;;;4.60;99.90;;;;;;5034825;28;20463;-88
2021/11/21 11:16:47;;;;;;;0.50;0.47;;;4.60;99.90;;;;;;5034659;28;20467;-88
2021/11/21 11:19:16;;;;;;;0.80;0.80;;;4.70;99.90;;;;;;5034637;28;20435;-88
2021/11/21 11:21:43;;;;;;;0.40;0.30;;;4.70;99.90;;;;;;5034731;28;20411;-88
2021/11/21 11:24:11;;;;;;;0.50;0.50;;;4.70;99.90;;;;;;5033884;28;20473;-85
2021/11/21 11:26:39;;;;;;;0.30;0.30;;;4.70;99.90;;;;;;5034039;28;20442;-85
2021/11/21 11:29:20;;;;;;;3.70;1.13;;;4.60;99.90;;;;;;5033969;28;20545;-86
2021/11/21 11:31:48;;;;;;;0.30;0.30;;;4.60;99.90;;;;;;5034146;28;20414;-86
2021/11/21 11:34:33;;;;;;;0.63;0.63;;;4.60;99.90;;;;;;5034004;28;20499;-88
2021/11/21 11:37:00;;;;;;;0.40;0.40;;;4.60;99.90;;;;;;5034111;28;20469;-88
2021/11/21 11:39:39;;;;;;;0.50;0.50;;;4.50;99.90;;;;;;5034118;28;20442;-88
2021/11/21 11:42:35;;;;;;;0.30;0.30;;;4.60;99.90;;;;;;5034294;28;20471;-88
2021/11/21 11:45:05;;;;;;;0.50;0.50;;;4.60;99.90;;;;;;5034217;28;20466;-88
2021/11/21 11:47:32;;;;;;;0.60;0.40;;;4.60;99.90;;;;;;5034061;28;20450;-86
2021/11/21 11:49:59;;;;;;;0.40;0.30;;;4.60;99.90;;;;;;5033641;28;20435;-86
2021/11/21 11:52:55;;;;;;;1.07;1.07;;;4.70;99.90;;;;;;5033378;28;20435;-81
2021/11/21 11:55:24;;;;;;;0.30;0.30;;;4.70;99.90;;;;;;5033281;28;20557;-81
2021/11/21 11:57:53;;;;;;;0.30;0.30;;;4.70;99.90;;;;;;5033063;28;20471;-81
2021/11/21 12:00:26;;;;;;;0.30;0.20;;;4.70;99.90;;;;;;5033285;28;20450;-81
2021/11/21 12:02:55;;;;;;;0.30;0.30;;;4.70;99.90;;;;;;5033026;28;20427;-81
2021/11/21 12:05:30;;;;;;;0.40;0.30;;;4.70;99.90;;;;;;5033215;28;20545;-84
2021/11/21 12:08:12;;;;;;;0.40;0.30;;;4.70;99.90;;;;;;5033263;28;20898;-80
2021/11/21 12:10:48;;;;;;;0.30;0.30;;;4.80;99.90;;;;;;5034152;28;20453;-85
2021/11/21 12:13:27;;;;;;;0.30;0.20;;;4.90;99.90;;;;;;5033314;28;20797;-86
2021/11/21 12:15:57;;;;;;;1.13;0.40;;;4.90;99.90;;;;;;5033058;28;20558;-84
2021/11/21 12:18:55;;;;;;;0.30;0.30;;;4.90;99.90;;;;;;5033255;28;20474;-84
2021/11/21 12:21:37;;;;;;;0.40;0.30;;;4.90;99.90;;;;;;5024194;28;20546;-84
2021/11/21 12:24:05;;;;;;;0.60;0.60;;;4.90;99.90;;;;;;5037084;28;20455;-84
2021/11/21 12:26:38;;;;;;;0.70;0.70;;;4.90;99.90;;;;;;5041762;28;20413;-84
2021/11/21 12:29:09;;;;;;;0.53;0.53;;;4.90;99.90;;;;;;5037262;28;20453;-84
2021/11/21 12:31:38;;;;;;;3.37;0.60;;;4.90;99.90;;;;;;5036711;28;20416;-84
2021/11/21 12:34:39;;;;;;;0.30;0.30;;;4.90;99.90;;;;;;5037056;28;20458;-84
2021/11/21 12:37:38;;;;;;;0.73;0.73;;;4.90;99.90;;;;;;4938006;29;20443;-84
2021/11/21 12:40:14;;;;;;;0.60;0.53;;;4.90;99.90;;;;;;4937169;29;20442;-84
2021/11/21 12:42:42;;;;;;;0.30;0.20;;;4.90;99.90;;;;;;5009765;28;20442;-84
2021/11/21 12:45:13;;;;;;;0.87;0.40;;;4.90;99.90;;;;;;5036805;28;20457;-88
2021/11/21 12:47:41;;;;;;;0.30;0.30;;;4.90;99.90;;;;;;5037333;28;20411;-88
2021/11/21 12:50:17;;;;;;;0.70;0.30;;;4.90;99.90;;;;;;5037384;28;20442;-88
2021/11/21 12:52:57;;;;;;;1.37;1.10;;;4.90;99.90;;;;;;5037371;28;20418;-88
2021/11/21 12:55:24;;;;;;;0.40;0.33;;;4.90;99.90;;;;;;5036525;28;20831;-84
2021/11/21 12:57:53;;;;;;;0.30;0.20;;;4.80;99.90;;;;;;5036237;28;20482;-84
2021/11/21 13:00:27;;;;;;;1.90;1.80;;;4.80;99.90;;;;;;5036403;28;20431;-84
2021/11/21 13:03:02;;;;;;;0.30;0.20;;;4.80;99.90;;;;;;5036917;28;20442;-87
2021/11/21 13:05:29;;;;;;;0.30;0.30;;;4.70;99.90;;;;;;5036272;28;20840;-84